createdAt,value
2023-04-14T00:03:36.092Z,10.18
2023-04-14T00:13:40.398Z,10.13
2023-04-14T00:23:43.988Z,10.01
2023-04-14T00:33:49.558Z,9.72
2023-04-14T00:43:56.650Z,9.55
2023-04-14T00:54:02.768Z,9.43
2023-04-14T01:04:07.371Z,9.19
2023-04-14T01:15:31.640Z,8.93
2023-04-14T01:26:18.857Z,9.00
2023-04-14T01:36:37.954Z,9.39
2023-04-14T01:46:46.623Z,9.67
2023-04-14T01:56:53.852Z,9.86
2023-04-14T02:07:05.393Z,10.32
2023-04-14T02:17:13.819Z,10.47
2023-04-14T02:27:46.535Z,10.39
2023-04-14T02:37:57.612Z,10.47
2023-04-14T02:48:07.539Z,10.73
2023-04-14T02:58:12.147Z,10.83
2023-04-14T03:08:20.589Z,10.78
2023-04-14T03:18:31.541Z,10.78
2023-04-14T03:28:38.039Z,10.78
2023-04-14T03:38:45.905Z,10.72
2023-04-14T03:48:56.777Z,10.94
2023-04-14T03:59:03.017Z,11.18
2023-04-14T04:09:14.650Z,11.37
2023-04-14T04:19:23.546Z,11.48
2023-04-14T04:29:27.590Z,11.51
2023-04-14T04:39:31.487Z,11.50
2023-04-14T04:49:44.366Z,11.40
2023-04-14T04:59:49.312Z,11.44
2023-04-14T05:09:53.498Z,11.55
2023-04-14T05:19:59.171Z,11.49
2023-04-14T05:30:03.951Z,11.55
2023-04-14T05:40:08.360Z,11.91
2023-04-14T05:50:12.242Z,12.40
2023-04-14T06:00:18.284Z,12.58
2023-04-14T06:10:21.835Z,12.46
2023-04-14T06:20:27.838Z,12.38
2023-04-14T06:30:32.578Z,12.49
2023-04-14T06:40:38.230Z,12.32
2023-04-14T06:50:45.608Z,12.67
2023-04-14T07:00:49.190Z,12.83
2023-04-14T07:10:59.967Z,13.04
2023-04-14T07:21:05.493Z,13.23
2023-04-14T07:31:11.022Z,13.82
2023-04-14T07:41:14.942Z,14.21
2023-04-14T07:51:22.125Z,14.38
2023-04-14T08:01:25.898Z,14.43
2023-04-14T08:11:32.268Z,14.62
2023-04-14T08:21:35.908Z,14.59
2023-04-14T08:31:39.470Z,14.55
2023-04-14T08:41:45.143Z,15.24
2023-04-14T08:51:52.206Z,14.84
2023-04-14T09:01:56.649Z,14.79
2023-04-14T09:12:04.500Z,14.90
2023-04-14T09:22:08.203Z,15.20
2023-04-14T09:32:12.962Z,15.67
2023-04-14T09:42:20.294Z,16.07
2023-04-14T09:52:38.823Z,16.65
2023-04-14T10:03:01.927Z,16.92
2023-04-14T10:13:09.221Z,17.30
2023-04-14T10:23:13.318Z,17.69
2023-04-14T10:33:17.089Z,18.22
2023-04-14T10:43:29.627Z,18.58
2023-04-14T10:53:46.651Z,19.14
2023-04-14T11:03:51.231Z,18.39
2023-04-14T11:14:11.858Z,18.17
2023-04-14T11:24:15.891Z,17.69
2023-04-14T11:34:26.092Z,16.74
2023-04-14T11:44:32.627Z,16.76
2023-04-14T11:54:40.006Z,16.98
2023-04-14T12:04:51.123Z,17.32
2023-04-14T12:14:56.377Z,17.23
2023-04-14T12:25:13.552Z,17.70
2023-04-14T12:35:24.808Z,17.52
2023-04-14T12:45:43.929Z,17.85
2023-04-14T12:56:16.578Z,18.16
2023-04-14T13:06:22.945Z,18.08
2023-04-14T13:16:29.719Z,17.71
2023-04-14T13:26:34.278Z,17.73
2023-04-14T13:36:39.208Z,17.33
2023-04-14T13:46:45.906Z,17.36
2023-04-14T13:56:51.499Z,17.26
2023-04-14T14:06:56.933Z,17.04
2023-04-14T14:17:02.534Z,17.09
2023-04-14T14:27:06.816Z,16.94
2023-04-14T14:37:10.414Z,17.07
2023-04-14T14:47:14.037Z,16.81
2023-04-14T14:57:19.819Z,16.83
2023-04-14T15:07:23.375Z,16.62
2023-04-14T15:17:30.412Z,16.16
2023-04-14T15:27:34.072Z,15.56
2023-04-14T15:37:37.773Z,15.61
2023-04-14T15:47:41.298Z,15.50
2023-04-14T15:57:45.015Z,15.54
2023-04-14T16:07:49.002Z,15.26
2023-04-14T16:17:52.686Z,15.13
2023-04-14T16:27:57.565Z,14.95
2023-04-14T16:38:03.399Z,14.68
2023-04-14T16:48:07.466Z,14.49
2023-04-14T16:58:13.609Z,14.59
2023-04-14T17:08:21.694Z,14.48
2023-04-14T17:18:25.206Z,14.21
2023-04-14T17:28:29.031Z,14.00
2023-04-14T17:38:35.259Z,13.83
2023-04-14T17:48:39.639Z,13.79
2023-04-14T17:58:47.071Z,13.70
2023-04-14T18:08:50.778Z,13.65
2023-04-14T18:18:55.210Z,13.66
2023-04-14T18:29:00.469Z,13.69
2023-04-14T18:39:07.257Z,13.60
2023-04-14T18:49:12.569Z,13.42
2023-04-14T18:59:18.767Z,13.36
2023-04-14T19:09:25.419Z,13.38
2023-04-14T19:19:29.944Z,13.41
2023-04-14T19:29:35.879Z,13.30
2023-04-14T19:39:40.718Z,13.17
2023-04-14T19:49:48.173Z,12.99
2023-04-14T19:59:53.522Z,12.96
2023-04-14T20:09:57.640Z,12.67
2023-04-14T20:20:06.962Z,12.52
2023-04-14T20:30:13.270Z,12.45
2023-04-14T20:40:19.300Z,12.34
2023-04-14T20:50:22.926Z,12.35
2023-04-14T21:00:26.840Z,12.45
2023-04-14T21:10:30.584Z,12.47
2023-04-14T21:20:36.023Z,12.49
2023-04-14T21:30:39.581Z,12.52
2023-04-14T21:40:45.195Z,12.46
2023-04-14T21:50:49.480Z,12.41
2023-04-14T22:00:55.086Z,12.41
2023-04-14T22:11:00.494Z,12.40
2023-04-14T22:21:04.977Z,12.32
2023-04-14T22:31:10.422Z,12.37
2023-04-14T22:41:18.532Z,12.38
2023-04-14T22:51:22.497Z,12.29
2023-04-14T23:01:31.564Z,12.31
2023-04-14T23:11:35.162Z,12.15
2023-04-14T23:21:42.336Z,12.14
2023-04-14T23:31:46.333Z,12.18
2023-04-14T23:41:52.981Z,12.13
2023-04-14T23:51:57.079Z,12.12
